LFSD 181530Z AUTO 32004KT 9999 ///CB 21/17 Q1013

ElémentsDécodage
LFSD Station météo située sur l'aérodrome de DIJON Longvic
181530Z émis le 18 du mois à 15h30 UTC
AUTO Bulletin édité par un automate
32004KT vent du 320°, 04 noeuds
9999 visibilité horizontale supérieure à 10 Km
///CB élement non décodé
21/17 température 21°C, point de rosée 17°C
 soit une humidité relative de 78%
Q1013 la pression au niveau de la mer (QNH) est de 1013 hPa